Time;durP1;ratioP1;P1;durP2;ratioP2;P2;SDS_P1;SDS_P2;PMS_P1;PMS_P2;Temp;Humidity;BMP_temperature;BMP_pressure;BME280_temperature;BME280_humidity;BME280_pressure;Samples;Min_cycle;Max_cycle;Signal;HPM_P1;HPM_P2
2023/06/10 00:00:34;;;;;;;10.93;6.60;;;18.00;99.90;;;;;;5028615;28;20537;-72
2023/06/10 00:03:00;;;;;;;11.93;6.28;;;18.10;99.90;;;;;;5049882;28;20037;-72
2023/06/10 00:05:29;;;;;;;11.00;6.43;;;18.00;99.90;;;;;;5051124;28;20423;-71
2023/06/10 00:07:55;;;;;;;9.70;6.28;;;18.00;99.90;;;;;;5051869;28;20092;-72
2023/06/10 00:10:22;;;;;;;10.88;6.45;;;18.00;99.90;;;;;;5050058;28;20049;-72
2023/06/10 00:12:48;;;;;;;10.77;6.22;;;18.00;99.90;;;;;;5032015;28;20116;-72
2023/06/10 00:15:13;;;;;;;10.25;6.40;;;18.00;99.90;;;;;;5031861;28;20041;-71
2023/06/10 00:17:40;;;;;;;11.38;6.18;;;17.90;99.90;;;;;;5044768;28;20059;-72
2023/06/10 00:20:11;;;;;;;9.52;6.43;;;17.90;99.90;;;;;;5031829;28;20049;-71
2023/06/10 00:22:39;;;;;;;9.43;5.70;;;18.00;99.90;;;;;;5030573;28;20440;-71
2023/06/10 00:25:10;;;;;;;9.15;6.10;;;17.80;99.90;;;;;;5035771;28;20064;-72
2023/06/10 00:27:35;;;;;;;8.52;6.10;;;17.90;99.90;;;;;;5042225;28;20041;-72
2023/06/10 00:30:04;;;;;;;8.68;5.75;;;17.80;99.90;;;;;;5041127;28;20124;-71
2023/06/10 00:32:31;;;;;;;11.50;6.38;;;17.90;99.90;;;;;;5035396;28;20061;-71
2023/06/10 00:34:56;;;;;;;8.65;5.80;;;17.90;99.90;;;;;;5034531;28;20052;-72
2023/06/10 00:37:22;;;;;;;11.48;6.15;;;17.70;99.90;;;;;;5034464;28;20050;-72
2023/06/10 00:39:48;;;;;;;9.20;6.18;;;17.60;99.90;;;;;;5035527;28;20037;-72
2023/06/10 00:42:13;;;;;;;9.70;6.13;;;17.60;99.90;;;;;;5034453;28;20071;-72
2023/06/10 00:44:39;;;;;;;8.73;6.22;;;17.60;99.90;;;;;;5031871;28;20037;-73
2023/06/10 00:47:05;;;;;;;9.43;6.00;;;17.70;99.90;;;;;;5035333;28;20509;-72
2023/06/10 00:49:32;;;;;;;8.77;6.03;;;17.70;99.90;;;;;;5035278;28;20045;-72
2023/06/10 00:51:58;;;;;;;10.93;6.20;;;17.70;99.90;;;;;;5033354;28;20045;-72
2023/06/10 00:54:25;;;;;;;10.05;6.47;;;17.50;99.90;;;;;;5035315;28;20037;-72
2023/06/10 00:56:52;;;;;;;12.15;6.70;;;17.60;99.90;;;;;;5052359;28;20045;-74
2023/06/10 00:59:18;;;;;;;9.05;6.20;;;17.50;99.90;;;;;;5033238;28;20042;-72
2023/06/10 01:01:46;;;;;;;8.30;6.20;;;17.50;99.90;;;;;;5033659;28;20451;-72
2023/06/10 01:04:13;;;;;;;10.30;6.38;;;17.50;99.90;;;;;;5035012;28;20060;-71
2023/06/10 01:06:46;;;;;;;9.07;6.38;;;17.40;99.90;;;;;;5034163;28;20440;-72
2023/06/10 01:09:38;;;;;;;10.45;6.50;;;17.40;99.90;;;;;;5033695;28;20120;-72
2023/06/10 01:12:16;;;;;;;10.60;6.63;;;17.40;99.90;;;;;;5032816;28;20061;-72
2023/06/10 01:14:44;;;;;;;10.30;6.82;;;17.40;99.90;;;;;;5034983;28;20107;-72
2023/06/10 01:17:11;;;;;;;10.30;6.88;;;17.50;99.90;;;;;;5033708;28;20555;-72
2023/06/10 01:19:36;;;;;;;8.88;6.68;;;17.30;99.90;;;;;;5032108;28;20483;-71
2023/06/10 01:22:03;;;;;;;9.55;6.70;;;17.30;99.90;;;;;;5034419;28;20042;-72
2023/06/10 01:24:34;;;;;;;9.02;6.93;;;17.30;99.90;;;;;;5034457;28;20053;-72
2023/06/10 01:27:06;;;;;;;11.10;7.25;;;17.30;99.90;;;;;;5033873;28;20066;-72
2023/06/10 01:29:38;;;;;;;10.73;7.47;;;17.20;99.90;;;;;;5032949;28;20076;-72
2023/06/10 01:32:11;;;;;;;8.90;6.80;;;17.20;99.90;;;;;;5033704;28;20041;-72
2023/06/10 01:34:39;;;;;;;10.57;7.00;;;17.10;99.90;;;;;;5032420;28;20053;-72
2023/06/10 01:37:05;;;;;;;11.32;7.45;;;17.10;99.90;;;;;;5033257;28;20060;-72
2023/06/10 01:39:32;;;;;;;9.57;6.93;;;17.20;99.90;;;;;;5033917;28;20045;-71
2023/06/10 01:41:58;;;;;;;8.40;6.45;;;17.10;99.90;;;;;;5033774;28;20440;-72
2023/06/10 01:44:24;;;;;;;10.05;6.88;;;17.10;99.90;;;;;;5049038;28;20048;-72
2023/06/10 01:46:50;;;;;;;10.00;6.72;;;17.00;99.90;;;;;;5054456;28;20350;-72
2023/06/10 01:49:16;;;;;;;11.43;7.15;;;16.90;99.90;;;;;;5033839;28;20064;-72
2023/06/10 01:51:41;;;;;;;12.40;6.88;;;16.90;99.90;;;;;;5039327;28;20052;-72
2023/06/10 01:54:07;;;;;;;11.93;7.10;;;17.00;99.90;;;;;;5052997;28;20120;-71
2023/06/10 01:56:33;;;;;;;10.25;7.35;;;17.00;99.90;;;;;;5045753;28;20371;-72
2023/06/10 01:58:59;;;;;;;11.50;6.90;;;16.90;99.90;;;;;;5033775;28;20091;-72
2023/06/10 02:01:26;;;;;;;12.75;7.35;;;16.90;99.90;;;;;;5031943;28;20400;-72
2023/06/10 02:03:51;;;;;;;12.10;6.93;;;17.00;99.90;;;;;;5044909;28;20038;-72
2023/06/10 02:06:17;;;;;;;13.75;6.95;;;16.90;99.90;;;;;;5034803;28;20053;-72
2023/06/10 02:08:43;;;;;;;10.85;7.03;;;16.80;99.90;;;;;;5053179;28;20045;-72
2023/06/10 02:11:08;;;;;;;10.52;6.90;;;16.80;99.90;;;;;;5054041;28;20049;-72
2023/06/10 02:13:34;;;;;;;11.75;7.13;;;16.70;99.90;;;;;;5038473;28;20124;-72
2023/06/10 02:16:00;;;;;;;11.75;7.68;;;16.80;99.90;;;;;;5031775;28;20091;-72
2023/06/10 02:18:27;;;;;;;10.68;6.82;;;16.60;99.90;;;;;;5032950;28;20500;-72
2023/06/10 02:20:53;;;;;;;10.88;6.78;;;16.60;99.90;;;;;;5030874;28;20068;-72
2023/06/10 02:23:19;;;;;;;10.35;7.10;;;16.70;99.90;;;;;;5030705;28;20132;-71
2023/06/10 02:25:47;;;;;;;10.88;7.20;;;16.60;99.90;;;;;;5033625;28;20597;-72
2023/06/10 02:28:13;;;;;;;11.40;7.15;;;16.50;99.90;;;;;;5033422;28;20041;-72
2023/06/10 02:30:42;;;;;;;10.77;7.18;;;16.60;99.90;;;;;;5032070;28;20376;-71
2023/06/10 02:33:11;;;;;;;10.98;7.10;;;16.40;99.90;;;;;;5033098;28;20175;-72
2023/06/10 02:35:40;;;;;;;10.25;7.15;;;16.50;99.90;;;;;;5031822;28;20569;-72
2023/06/10 02:38:06;;;;;;;10.27;7.70;;;16.50;99.90;;;;;;5032585;28;20401;-71
2023/06/10 02:40:31;;;;;;;11.27;6.95;;;16.50;99.90;;;;;;5033127;28;20045;-71
2023/06/10 02:42:58;;;;;;;10.48;7.32;;;16.40;99.90;;;;;;5031887;28;20045;-72
2023/06/10 02:45:24;;;;;;;9.40;6.45;;;16.40;99.90;;;;;;5031884;28;20051;-72
2023/06/10 02:47:49;;;;;;;10.95;7.20;;;16.50;99.90;;;;;;5048269;28;20436;-72
2023/06/10 02:50:15;;;;;;;10.15;6.70;;;;;;;;;;5032816;28;20072;-72
2023/06/10 02:52:42;;;;;;;10.10;6.93;;;;;;;;;;5030417;28;20049;-72
2023/06/10 02:55:08;;;;;;;9.82;7.32;;;;;;;;;;5032942;28;20098;-72
2023/06/10 02:57:34;;;;;;;11.85;7.70;;;;;;;;;;5031611;28;20034;-71
2023/06/10 03:00:01;;;;;;;11.88;7.65;;;;;;;;;;5031688;28;20612;-71
2023/06/10 03:02:28;;;;;;;10.43;7.32;;;;;;;;;;5031401;28;20053;-72
2023/06/10 03:04:57;;;;;;;11.35;7.22;;;;;;;;;;5030556;28;20530;-72
2023/06/10 03:07:24;;;;;;;12.48;7.30;;;;;;;;;;5032782;28;20048;-72
2023/06/10 03:09:50;;;;;;;10.10;7.05;;;;;;;;;;5031085;28;20045;-72
2023/06/10 03:12:16;;;;;;;12.02;7.28;;;;;;;;;;5032213;28;20063;-72
2023/06/10 03:14:42;;;;;;;10.75;7.50;;;;;;;;;;5031459;28;20049;-72
2023/06/10 03:17:08;;;;;;;12.60;7.57;;;;;;;;;;5033050;28;20044;-72
2023/06/10 03:19:35;;;;;;;8.40;7.00;;;;;;;;;;5031576;28;20125;-72
2023/06/10 03:22:14;;;;;;;12.57;7.80;;;;;;;;;;5032765;28;20049;-72
2023/06/10 03:24:40;;;;;;;9.82;7.32;;;;;;;;;;5031916;28;20045;-72
2023/06/10 03:27:13;;;;;;;12.57;7.18;;;;;;;;;;5029118;28;20107;-71
2023/06/10 03:29:39;;;;;;;11.27;7.35;;;;;;;;;;5030696;28;20045;-72
2023/06/10 03:32:05;;;;;;;12.07;7.57;;;;;;;;;;5051971;28;20128;-72
2023/06/10 03:34:31;;;;;;;10.90;7.32;;;;;;;;;;5040832;28;20081;-72
2023/06/10 03:36:58;;;;;;;12.00;7.53;;;;;;;;;;5030788;28;20049;-72
2023/06/10 03:39:24;;;;;;;10.98;7.70;;;;;;;;;;5031068;28;20081;-72
2023/06/10 03:41:50;;;;;;;11.65;6.95;;;;;;;;;;5031549;28;20076;-72
2023/06/10 03:44:17;;;;;;;12.10;7.47;;;;;;;;;;5030904;28;20494;-72
2023/06/10 03:46:43;;;;;;;9.75;7.18;;;;;;;;;;5029521;28;20053;-72
2023/06/10 03:49:09;;;;;;;11.98;7.53;;;;;;;;;;5037389;28;20106;-72
2023/06/10 03:51:36;;;;;;;11.50;7.93;;;;;;;;;;5049412;28;20106;-72
2023/06/10 03:54:02;;;;;;;11.32;7.28;;;;;;;;;;5043144;28;20049;-71
2023/06/10 03:56:28;;;;;;;11.40;7.60;;;;;;;;;;5031025;28;20136;-72
2023/06/10 03:58:55;;;;;;;14.40;7.63;;;;;;;;;;5031645;28;20528;-72
2023/06/10 04:01:23;;;;;;;11.23;7.10;;;;;;;;;;5028240;28;20080;-71
2023/06/10 04:03:51;;;;;;;12.18;7.05;;;;;;;;;;5045983;28;20132;-72
2023/06/10 04:06:17;;;;;;;10.45;6.90;;;;;;;;;;5050923;28;20053;-72
2023/06/10 04:08:43;;;;;;;9.50;6.55;;;;;;;;;;5039044;28;20052;-72
2023/06/10 04:11:09;;;;;;;9.75;6.90;;;;;;;;;;5031387;28;20119;-72
2023/06/10 04:13:36;;;;;;;11.00;7.00;;;;;;;;;;5030534;28;20137;-72
2023/06/10 04:16:03;;;;;;;10.50;7.07;;;;;;;;;;5029791;28;20041;-72
2023/06/10 04:18:29;;;;;;;10.57;6.65;;;;;;;;;;5031849;28;20041;-72
2023/06/10 04:20:55;;;;;;;10.20;6.93;;;;;;;;;;5038860;28;20045;-72
2023/06/10 04:23:21;;;;;;;9.93;7.07;;;;;;;;;;5050442;28;20115;-72
2023/06/10 04:25:47;;;;;;;12.48;7.53;;;;;;;;;;5051603;28;20503;-72
2023/06/10 04:28:13;;;;;;;12.32;6.88;;;;;;;;;;5041366;28;20049;-72
2023/06/10 04:30:39;;;;;;;8.45;6.47;;;;;;;;;;5032341;28;20052;-71
2023/06/10 04:33:06;;;;;;;8.95;6.53;;;;;;;;;;5029413;28;20497;-72
2023/06/10 04:35:33;;;;;;;10.55;6.85;;;;;;;;;;5031121;28;20150;-72
2023/06/10 04:37:59;;;;;;;12.30;6.97;;;;;;;;;;5030688;28;20374;-72
2023/06/10 04:40:25;;;;;;;10.75;7.25;;;;;;;;;;5031069;28;20084;-72
2023/06/10 04:42:51;;;;;;;8.38;5.90;;;16.50;99.90;;;;;;5030918;28;20477;-72
2023/06/10 04:45:17;;;;;;;10.35;6.18;;;;;;;;;;5045488;28;20043;-75
2023/06/10 04:47:43;;;;;;;13.10;6.68;;;16.20;99.90;;;;;;5047148;28;20052;-72
2023/06/10 04:50:09;;;;;;;10.95;6.45;;;16.20;99.90;;;;;;5030440;28;20111;-71
2023/06/10 04:52:34;;;;;;;9.63;6.10;;;16.10;99.90;;;;;;5029839;28;20049;-72
2023/06/10 04:55:00;;;;;;;11.68;7.30;;;16.20;99.90;;;;;;5031670;28;20079;-72
2023/06/10 04:57:26;;;;;;;8.65;6.20;;;16.30;99.90;;;;;;5038572;28;20049;-72
2023/06/10 04:59:52;;;;;;;11.20;6.30;;;16.40;99.90;;;;;;5051612;28;20132;-72
2023/06/10 05:02:18;;;;;;;8.93;6.47;;;16.40;99.90;;;;;;5038331;28;20124;-72
2023/06/10 05:04:44;;;;;;;12.10;7.32;;;16.40;99.90;;;;;;5027561;28;20472;-72
2023/06/10 05:07:09;;;;;;;9.85;6.70;;;16.40;99.90;;;;;;5031389;28;20041;-71
2023/06/10 05:09:35;;;;;;;11.63;7.10;;;16.30;99.90;;;;;;5031005;28;20041;-72
2023/06/10 05:12:02;;;;;;;10.32;6.70;;;16.30;99.90;;;;;;5033712;28;20405;-72
2023/06/10 05:14:27;;;;;;;9.13;6.60;;;16.40;99.90;;;;;;5033340;28;20409;-72
2023/06/10 05:16:53;;;;;;;11.25;6.55;;;16.40;99.90;;;;;;5041398;28;20033;-72
2023/06/10 05:19:19;;;;;;;9.23;6.70;;;16.40;99.90;;;;;;5053807;28;20045;-73
2023/06/10 05:21:45;;;;;;;12.05;6.93;;;16.50;99.90;;;;;;5054225;28;20504;-72
2023/06/10 05:24:11;;;;;;;10.88;7.40;;;16.40;99.90;;;;;;5032380;28;20508;-72
2023/06/10 05:26:37;;;;;;;7.95;6.53;;;16.50;99.90;;;;;;5033661;28;20071;-72
2023/06/10 05:29:08;;;;;;;11.80;6.63;;;16.50;99.90;;;;;;5033165;28;20056;-72
2023/06/10 05:31:33;;;;;;;10.73;6.57;;;16.60;99.90;;;;;;5033802;28;20045;-72
2023/06/10 05:33:59;;;;;;;8.75;6.30;;;16.70;99.90;;;;;;5032429;28;20060;-72
2023/06/10 05:36:27;;;;;;;9.95;6.78;;;16.60;99.90;;;;;;5032644;28;20061;-72
2023/06/10 05:38:53;;;;;;;11.23;6.45;;;16.60;99.90;;;;;;5033605;28;20038;-72
2023/06/10 05:41:18;;;;;;;10.00;6.60;;;16.60;99.90;;;;;;5034735;28;20057;-72
2023/06/10 05:43:44;;;;;;;8.50;6.15;;;16.60;99.90;;;;;;5032897;28;20060;-72
2023/06/10 05:46:10;;;;;;;11.25;6.60;;;16.80;99.90;;;;;;5048885;28;20050;-72
2023/06/10 05:48:35;;;;;;;8.43;6.47;;;16.70;99.90;;;;;;5032478;28;20041;-72
2023/06/10 05:51:01;;;;;;;9.27;6.05;;;16.90;99.90;;;;;;5033614;28;20072;-72
2023/06/10 05:53:27;;;;;;;8.85;6.43;;;17.00;99.90;;;;;;5032814;28;20049;-72
2023/06/10 05:55:57;;;;;;;9.15;6.13;;;17.00;99.90;;;;;;5031405;28;20041;-72
2023/06/10 05:58:23;;;;;;;11.50;6.03;;;17.00;99.90;;;;;;5033645;28;20045;-72
2023/06/10 06:00:49;;;;;;;8.85;6.45;;;17.10;99.90;;;;;;5048527;28;20049;-72
2023/06/10 06:03:15;;;;;;;8.02;5.78;;;17.10;99.90;;;;;;5034681;28;20052;-72
2023/06/10 06:05:40;;;;;;;11.25;5.82;;;17.10;99.90;;;;;;5053289;28;20700;-72
2023/06/10 06:08:06;;;;;;;10.20;5.82;;;17.20;99.90;;;;;;5053023;28;20456;-72
2023/06/10 06:10:33;;;;;;;9.93;5.82;;;17.30;99.90;;;;;;5038441;28;20049;-72
2023/06/10 06:12:59;;;;;;;10.25;5.95;;;17.40;99.90;;;;;;5032541;28;20041;-72
2023/06/10 06:15:24;;;;;;;9.75;5.85;;;17.60;99.90;;;;;;5032277;28;20041;-73
2023/06/10 06:17:52;;;;;;;10.05;6.38;;;17.70;99.90;;;;;;5033367;28;20177;-72
2023/06/10 06:20:19;;;;;;;8.93;6.05;;;17.50;99.90;;;;;;5032935;28;20128;-73
2023/06/10 06:22:44;;;;;;;11.70;6.60;;;17.50;99.90;;;;;;5032219;28;20072;-72
2023/06/10 06:25:10;;;;;;;8.48;6.20;;;17.60;99.90;;;;;;5033580;28;20378;-72
2023/06/10 06:27:35;;;;;;;9.27;5.70;;;17.70;99.90;;;;;;5031165;28;20873;-72
2023/06/10 06:30:01;;;;;;;9.02;5.85;;;17.70;99.90;;;;;;5032775;28;20033;-72
2023/06/10 06:32:27;;;;;;;10.45;6.25;;;17.70;99.90;;;;;;5041894;28;20063;-72
2023/06/10 06:34:54;;;;;;;10.77;6.22;;;17.70;99.90;;;;;;5036591;28;20042;-72
2023/06/10 06:37:24;;;;;;;8.70;5.53;;;17.80;99.90;;;;;;5030303;28;20049;-72
2023/06/10 06:39:53;;;;;;;8.25;6.03;;;;;;;;;;5037190;28;20385;-73
2023/06/10 06:42:20;;;;;;;10.02;6.22;;;17.80;99.90;;;;;;5052659;28;20037;-72
2023/06/10 06:44:46;;;;;;;8.27;5.55;;;17.90;99.90;;;;;;5031124;28;20144;-72
2023/06/10 06:47:12;;;;;;;7.88;5.55;;;18.00;99.90;;;;;;5033035;28;20107;-72
2023/06/10 06:49:37;;;;;;;8.18;5.97;;;18.00;99.90;;;;;;5032258;28;20041;-72
2023/06/10 06:52:03;;;;;;;9.60;5.80;;;18.20;99.90;;;;;;5031201;28;20133;-72
2023/06/10 06:54:30;;;;;;;10.07;5.68;;;18.10;99.90;;;;;;5042144;28;20094;-72
2023/06/10 06:56:56;;;;;;;9.63;5.45;;;18.10;99.90;;;;;;5050583;28;20452;-72
2023/06/10 06:59:21;;;;;;;7.40;5.00;;;18.20;99.90;;;;;;5052364;28;20084;-73
2023/06/10 07:01:47;;;;;;;8.40;5.93;;;18.20;99.90;;;;;;5038445;28;20084;-72
2023/06/10 07:04:15;;;;;;;9.02;5.50;;;18.40;99.90;;;;;;5051314;28;20049;-72
2023/06/10 07:06:41;;;;;;;7.60;5.25;;;18.50;99.90;;;;;;5042955;28;20413;-72
2023/06/10 07:09:08;;;;;;;11.00;5.38;;;18.50;99.90;;;;;;5032769;28;20034;-72
2023/06/10 07:11:34;;;;;;;10.40;5.18;;;18.50;99.90;;;;;;5031536;28;20045;-72
2023/06/10 07:13:59;;;;;;;9.15;5.07;;;18.60;99.90;;;;;;5031296;28;20398;-71
2023/06/10 07:16:25;;;;;;;8.85;5.38;;;18.70;99.90;;;;;;5030321;28;20059;-72
2023/06/10 07:18:52;;;;;;;9.15;5.07;;;18.70;99.90;;;;;;5043600;28;20049;-72
2023/06/10 07:21:17;;;;;;;6.82;5.15;;;18.70;99.90;;;;;;5052259;28;20041;-72
2023/06/10 07:23:44;;;;;;;10.55;5.30;;;18.80;99.90;;;;;;5052205;28;20546;-71
2023/06/10 07:26:13;;;;;;;8.27;4.60;;;18.80;99.90;;;;;;5050975;28;20396;-71
2023/06/10 07:28:42;;;;;;;7.53;5.03;;;18.80;99.90;;;;;;5034613;28;20053;-71
2023/06/10 07:31:08;;;;;;;9.43;5.05;;;18.90;99.90;;;;;;5032123;28;20433;-71
2023/06/10 07:33:34;;;;;;;6.85;5.18;;;19.10;99.90;;;;;;5029058;28;20049;-71
2023/06/10 07:36:00;;;;;;;7.93;4.50;;;19.10;99.90;;;;;;5032356;28;20041;-71
2023/06/10 07:38:26;;;;;;;8.10;4.78;;;19.10;99.90;;;;;;5046908;28;20124;-71
2023/06/10 07:40:52;;;;;;;7.30;4.53;;;19.30;99.90;;;;;;5050169;28;20252;-71
2023/06/10 07:43:18;;;;;;;8.15;4.97;;;19.40;99.90;;;;;;5050184;28;20072;-71
2023/06/10 07:45:44;;;;;;;11.57;5.05;;;19.40;99.90;;;;;;5030339;28;20095;-71
2023/06/10 07:48:09;;;;;;;10.40;5.50;;;19.50;99.90;;;;;;5030386;28;20120;-71
2023/06/10 07:50:35;;;;;;;8.20;5.32;;;19.60;99.90;;;;;;5029407;28;20061;-71
2023/06/10 07:53:01;;;;;;;8.30;4.97;;;19.60;99.90;;;;;;5033449;28;20041;-71
2023/06/10 07:55:26;;;;;;;7.55;4.85;;;19.70;99.90;;;;;;5031258;28;20099;-71
2023/06/10 07:57:53;;;;;;;7.85;4.90;;;19.70;99.90;;;;;;5031327;28;20092;-72
2023/06/10 08:00:19;;;;;;;6.93;4.75;;;19.80;99.90;;;;;;5028756;28;20493;-72
2023/06/10 08:02:45;;;;;;;6.78;4.35;;;19.80;99.90;;;;;;5051263;28;20051;-71
2023/06/10 08:05:11;;;;;;;8.38;4.90;;;19.80;99.90;;;;;;5030886;28;20041;-71
2023/06/10 08:07:36;;;;;;;8.65;4.88;;;19.90;99.90;;;;;;5028624;28;20461;-71
2023/06/10 08:10:03;;;;;;;5.78;4.13;;;19.90;99.90;;;;;;5030465;28;20038;-71
2023/06/10 08:12:29;;;;;;;8.52;4.75;;;20.00;99.90;;;;;;5029195;28;20061;-71
2023/06/10 08:14:55;;;;;;;5.20;4.22;;;20.00;99.90;;;;;;5030710;28;20049;-71
2023/06/10 08:17:21;;;;;;;7.10;4.55;;;20.10;99.90;;;;;;5042635;28;20049;-71
2023/06/10 08:19:47;;;;;;;8.45;4.78;;;20.40;99.90;;;;;;5051111;28;20037;-71
2023/06/10 08:22:12;;;;;;;6.47;4.53;;;20.40;99.90;;;;;;5032861;28;20095;-72
2023/06/10 08:24:38;;;;;;;8.30;4.65;;;20.60;99.90;;;;;;5031295;28;20106;-72
2023/06/10 08:27:05;;;;;;;7.85;5.20;;;20.70;99.90;;;;;;5030204;28;20037;-72
2023/06/10 08:29:31;;;;;;;7.18;4.90;;;20.80;99.90;;;;;;5029513;28;20512;-72
2023/06/10 08:31:57;;;;;;;7.70;4.70;;;20.90;99.90;;;;;;5030185;28;20061;-71
2023/06/10 08:34:23;;;;;;;9.68;5.00;;;20.90;99.90;;;;;;5029818;28;20130;-72
2023/06/10 08:36:53;;;;;;;6.90;4.85;;;20.90;99.90;;;;;;5031068;28;20056;-72
2023/06/10 08:39:19;;;;;;;8.40;5.03;;;;;;;;;;5031235;28;20455;-72
2023/06/10 08:41:58;;;;;;;5.75;4.53;;;21.20;99.90;;;;;;5030577;28;20080;-71
2023/06/10 08:44:29;;;;;;;7.10;5.10;;;21.30;99.90;;;;;;5047212;28;20041;-72
2023/06/10 08:46:59;;;;;;;6.82;5.22;;;21.30;99.90;;;;;;5046429;28;20123;-72
2023/06/10 08:49:27;;;;;;;9.88;5.35;;;21.30;99.90;;;;;;5034375;28;20160;-72
2023/06/10 08:51:59;;;;;;;7.38;5.28;;;21.30;99.90;;;;;;5035173;28;20059;-72
2023/06/10 08:54:28;;;;;;;7.88;5.65;;;21.30;99.90;;;;;;5035136;28;20049;-72
2023/06/10 08:56:57;;;;;;;8.30;6.07;;;21.20;99.90;;;;;;5034328;28;20049;-72
2023/06/10 08:59:24;;;;;;;9.27;5.72;;;21.30;99.90;;;;;;5033730;28;20071;-72
2023/06/10 09:01:50;;;;;;;10.85;5.00;;;;;;;;;;5033412;28;20049;-72
2023/06/10 09:04:17;;;;;;;8.18;5.47;;;21.40;99.90;;;;;;5034528;28;20049;-73
2023/06/10 09:06:44;;;;;;;7.72;5.03;;;21.50;99.90;;;;;;5033269;28;20052;-71
2023/06/10 09:09:10;;;;;;;7.50;5.38;;;21.50;99.90;;;;;;5035204;28;20037;-71
2023/06/10 09:11:37;;;;;;;10.45;5.32;;;21.60;99.90;;;;;;5032723;28;20501;-71
2023/06/10 09:14:03;;;;;;;8.05;4.82;;;21.60;99.90;;;;;;5034961;28;20045;-71
2023/06/10 09:16:29;;;;;;;7.15;4.60;;;21.60;99.90;;;;;;5034479;28;20437;-71
2023/06/10 09:18:56;;;;;;;6.78;4.65;;;21.70;99.90;;;;;;5032700;28;20056;-71
2023/06/10 09:21:22;;;;;;;7.28;4.57;;;21.70;99.90;;;;;;5034391;28;20128;-75
2023/06/10 09:23:48;;;;;;;9.13;4.80;;;21.70;99.90;;;;;;5033528;28;20049;-71
2023/06/10 09:26:14;;;;;;;6.85;4.55;;;21.80;99.90;;;;;;5033517;28;20554;-71
2023/06/10 09:28:43;;;;;;;6.05;4.57;;;21.80;99.90;;;;;;5031945;28;20048;-71
2023/06/10 09:31:09;;;;;;;7.20;4.10;;;22.00;99.90;;;;;;5033957;28;20048;-71
2023/06/10 09:33:41;;;;;;;7.20;4.32;;;22.10;99.90;;;;;;5034234;28;20057;-71
2023/06/10 09:36:07;;;;;;;6.18;4.07;;;22.20;99.90;;;;;;5034851;28;20052;-70
2023/06/10 09:38:34;;;;;;;6.65;4.40;;;22.30;99.90;;;;;;5041292;28;20041;-71
2023/06/10 09:41:03;;;;;;;5.97;4.78;;;22.20;99.90;;;;;;5049249;28;20052;-71
2023/06/10 09:43:46;;;;;;;6.90;4.45;;;22.30;99.90;;;;;;5037372;28;20044;-71
2023/06/10 09:46:18;;;;;;;6.78;4.63;;;22.40;99.90;;;;;;5052611;28;20041;-71
2023/06/10 09:48:47;;;;;;;6.32;4.35;;;22.40;99.90;;;;;;5041596;28;20099;-71
2023/06/10 09:51:14;;;;;;;5.95;4.10;;;22.40;99.90;;;;;;5034082;28;20056;-70
2023/06/10 09:53:40;;;;;;;7.43;4.57;;;22.50;99.90;;;;;;5032393;28;20049;-73
2023/06/10 09:56:06;;;;;;;5.65;4.18;;;;;;;;;;5033329;28;20048;-73
2023/06/10 09:58:42;;;;;;;5.68;4.22;;;;;;;;;;5046228;28;20249;-73
2023/06/10 10:01:12;;;;;;;6.40;4.13;;;;;;;;;;5041882;28;20123;-73
2023/06/10 10:03:48;;;;;;;4.72;3.70;;;;;;;;;;5031368;28;20310;-71
2023/06/10 10:06:18;;;;;;;7.40;4.50;;;23.00;99.00;;;;;;5049307;28;20053;-71
2023/06/10 10:08:49;;;;;;;5.35;4.00;;;23.20;98.80;;;;;;5052798;28;20127;-71
2023/06/10 10:11:17;;;;;;;7.68;4.43;;;23.30;98.70;;;;;;5039557;28;20509;-74
2023/06/10 10:13:46;;;;;;;5.10;3.83;;;23.30;98.50;;;;;;5033446;28;20046;-71
2023/06/10 10:16:15;;;;;;;5.18;4.07;;;;;;;;;;5032770;28;20056;-73
2023/06/10 10:18:43;;;;;;;5.47;4.00;;;;;;;;;;5032194;28;20485;-72
2023/06/10 10:21:12;;;;;;;5.80;4.10;;;;;;;;;;5032513;28;20081;-73
2023/06/10 10:23:42;;;;;;;5.15;3.88;;;;;;;;;;5031932;28;20056;-73
2023/06/10 10:26:10;;;;;;;5.40;4.35;;;;;;;;;;5033336;28;20046;-73
2023/06/10 10:28:46;;;;;;;5.32;4.55;;;;;;;;;;5032328;28;20037;-74
2023/06/10 10:31:15;;;;;;;5.97;3.80;;;;;;;;;;5032580;28;20076;-73
2023/06/10 10:33:54;;;;;;;5.28;4.20;;;;;;;;;;5029739;28;20088;-71
2023/06/10 10:36:20;;;;;;;7.30;4.43;;;;;;;;;;5032787;28;20077;-72
2023/06/10 10:38:49;;;;;;;8.38;4.35;;;;;;;;;;5033466;28;20070;-74
2023/06/10 10:41:15;;;;;;;8.63;4.30;;;;;;;;;;5032411;28;20064;-73
2023/06/10 10:43:42;;;;;;;6.15;4.13;;;;;;;;;;5037543;28;20051;-74
2023/06/10 10:46:18;;;;;;;4.55;4.10;;;;;;;;;;5036603;28;20044;-73
2023/06/10 10:48:44;;;;;;;8.43;4.43;;;;;;;;;;5031919;28;20073;-73
2023/06/10 10:51:10;;;;;;;5.00;4.20;;;;;;;;;;5033348;28;20041;-73
2023/06/10 10:53:40;;;;;;;6.20;4.22;;;;;;;;;;5031359;28;20523;-74
2023/06/10 10:56:13;;;;;;;5.57;3.92;;;;;;;;;;5032344;28;20049;-73
2023/06/10 10:58:39;;;;;;;8.35;4.35;;;;;;;;;;5032322;28;20128;-73
2023/06/10 11:01:15;;;;;;;6.95;4.45;;;;;;;;;;5031921;28;20053;-73
2023/06/10 11:03:46;;;;;;;5.30;4.07;;;;;;;;;;5032093;28;20045;-73
2023/06/10 11:06:14;;;;;;;6.00;4.18;;;;;;;;;;5031314;28;20057;-72
2023/06/10 11:08:40;;;;;;;6.22;4.10;;;;;;;;;;5032212;28;20049;-73
2023/06/10 11:11:26;;;;;;;5.43;4.00;;;;;;;;;;5030523;28;20059;-73
2023/06/10 11:14:19;;;;;;;5.53;4.35;;;;;;;;;;5032751;28;20080;-73
2023/06/10 11:16:45;;;;;;;7.18;4.22;;;;;;;;;;5022549;28;20061;-73
2023/06/10 11:19:31;;;;;;;4.30;3.90;;;;;;;;;;5030984;28;20519;-73
2023/06/10 11:22:00;;;;;;;5.35;3.92;;;;;;;;;;5030709;28;20084;-73
2023/06/10 11:24:27;;;;;;;6.78;3.90;;;;;;;;;;5031304;28;20504;-73
2023/06/10 11:26:53;;;;;;;6.43;4.68;;;;;;;;;;5036502;28;20091;-73
2023/06/10 11:29:20;;;;;;;5.13;3.90;;;;;;;;;;5051939;28;20044;-73
2023/06/10 11:31:49;;;;;;;5.70;3.80;;;;;;;;;;5051549;28;20103;-73
2023/06/10 11:34:16;;;;;;;8.05;3.67;;;;;;;;;;5047885;28;20140;-73
2023/06/10 11:36:45;;;;;;;5.90;4.10;;;;;;;;;;5030546;28;20061;-73
2023/06/10 11:39:12;;;;;;;7.57;4.20;;;;;;;;;;5030255;28;20042;-72
2023/06/10 11:41:39;;;;;;;4.60;3.35;;;;;;;;;;5031904;28;20128;-73
2023/06/10 11:44:09;;;;;;;6.97;4.10;;;;;;;;;;5032231;28;20049;-73
2023/06/10 11:46:36;;;;;;;4.63;3.85;;;;;;;;;;5030610;28;20056;-73
2023/06/10 11:49:03;;;;;;;7.57;3.70;;;;;;;;;;5030692;28;20045;-73
2023/06/10 11:51:31;;;;;;;5.28;3.63;;;;;;;;;;5029265;28;20069;-73
2023/06/10 11:53:57;;;;;;;6.90;3.70;;;;;;;;;;5030886;28;20507;-73
2023/06/10 11:56:23;;;;;;;4.82;3.60;;;;;;;;;;5031850;28;20046;-73
2023/06/10 11:59:08;;;;;;;3.75;3.38;;;;;;;;;;5030469;28;20524;-73
2023/06/10 12:01:36;;;;;;;3.78;3.20;;;;;;;;;;5031072;28;20482;-73
2023/06/10 12:04:06;;;;;;;3.50;3.20;;;;;;;;;;5046638;28;20053;-73
2023/06/10 12:06:51;;;;;;;3.78;3.15;;;;;;;;;;5043850;28;20048;-74
2023/06/10 12:09:24;;;;;;;6.68;3.67;;;;;;;;;;5031375;28;20136;-74
2023/06/10 12:11:51;;;;;;;3.40;3.10;;;;;;;;;;5030817;28;20045;-73
2023/06/10 12:14:38;;;;;;;4.72;3.50;;;;;;;;;;5029772;28;20053;-73
2023/06/10 12:17:04;;;;;;;13.82;10.27;;;;;;;;;;5030419;28;20045;-71
2023/06/10 12:19:30;;;;;;;4.68;3.40;;;;;;;;;;5032280;28;20045;-71
2023/06/10 12:21:56;;;;;;;6.18;3.67;;;;;;;;;;5048096;28;20047;-71
2023/06/10 12:24:22;;;;;;;7.45;3.88;;;;;;;;;;5035531;28;20064;-71
2023/06/10 12:26:48;;;;;;;6.88;4.90;;;;;;;;;;5046116;28;20045;-73
2023/06/10 12:29:18;;;;;;;10.88;4.88;;;;;;;;;;5054802;28;20094;-73
2023/06/10 12:31:58;;;;;;;7.53;3.83;;;;;;;;;;5038325;28;20096;-71
2023/06/10 12:34:37;;;;;;;9.27;5.03;;;;;;;;;;5034382;28;20057;-72
2023/06/10 12:37:04;;;;;;;8.75;4.95;;;;;;;;;;5047305;28;20052;-71
2023/06/10 12:39:31;;;;;;;9.98;5.28;;;;;;;;;;5055074;28;20045;-71
2023/06/10 12:41:57;;;;;;;8.63;5.57;;;;;;;;;;5046268;28;20056;-71
2023/06/10 12:44:30;;;;;;;11.13;6.53;;;;;;;;;;5054728;28;20076;-71
2023/06/10 12:46:56;;;;;;;9.52;5.32;;;;;;;;;;5050584;28;20060;-71
2023/06/10 12:49:22;;;;;;;10.75;5.72;;;;;;;;;;5053760;28;20052;-73
2023/06/10 12:51:48;;;;;;;9.73;5.43;;;;;;;;;;5053377;28;20048;-71
2023/06/10 12:54:14;;;;;;;12.77;5.95;;;;;;;;;;5035514;28;20045;-71
2023/06/10 12:56:41;;;;;;;11.73;5.80;;;;;;;;;;5034308;28;20120;-71
2023/06/10 12:59:06;;;;;;;9.63;5.63;;;;;;;;;;5033590;28;20071;-73
2023/06/10 13:01:33;;;;;;;11.50;6.18;;;;;;;;;;5033819;28;20064;-71
2023/06/10 13:03:59;;;;;;;8.77;5.80;;;;;;;;;;5034264;28;20401;-71
2023/06/10 13:06:26;;;;;;;8.90;5.57;;;;;;;;;;5034988;28;20041;-71
2023/06/10 13:08:52;;;;;;;10.75;5.85;;;;;;;;;;5054880;28;20136;-71
2023/06/10 13:11:18;;;;;;;11.35;5.95;;;;;;;;;;5053675;28;20042;-71
2023/06/10 13:13:46;;;;;;;9.80;6.00;;;;;;;;;;5047219;28;20108;-71
2023/06/10 13:16:12;;;;;;;9.63;5.82;;;;;;;;;;5034804;28;20085;-71
2023/06/10 13:18:38;;;;;;;11.25;5.70;;;;;;;;;;5033912;28;20524;-71
2023/06/10 13:21:04;;;;;;;10.98;5.68;;;;;;;;;;5034814;28;20049;-72
2023/06/10 13:23:31;;;;;;;7.75;5.63;;;;;;;;;;5033341;28;20041;-71
2023/06/10 13:25:57;;;;;;;11.63;6.18;;;;;;;;;;5034793;28;20457;-71